createdAt,value
2023-04-15T00:00:46.254Z,57.9898
2023-04-15T00:01:47.954Z,57.9898
2023-04-15T00:02:49.806Z,57.9940
2023-04-15T00:03:51.884Z,58.0154
2023-04-15T00:04:53.629Z,58.0311
2023-04-15T00:05:55.266Z,58.0276
2023-04-15T00:06:56.833Z,58.0344
2023-04-15T00:07:58.325Z,58.0490
2023-04-15T00:09:00.137Z,58.0454
2023-04-15T00:10:00.261Z,58.0429
2023-04-15T00:11:01.866Z,58.0625
2023-04-15T00:12:03.462Z,58.0902
2023-04-15T00:13:05.035Z,58.0959
2023-04-15T00:14:06.629Z,58.0954
2023-04-15T00:15:08.154Z,58.0943
2023-04-15T00:16:09.712Z,58.0837
2023-04-15T00:17:11.235Z,58.0768
2023-04-15T00:18:12.698Z,58.0666
2023-04-15T00:19:12.872Z,58.0587
2023-04-15T00:20:14.415Z,58.0413
2023-04-15T00:21:15.950Z,58.0232
2023-04-15T00:22:17.506Z,58.0006
2023-04-15T00:23:19.065Z,57.9809
2023-04-15T00:24:20.626Z,57.9788
2023-04-15T00:25:22.136Z,57.9856
2023-04-15T00:26:23.685Z,57.9986
2023-04-15T00:27:25.202Z,58.0049
2023-04-15T00:28:26.754Z,58.0057
2023-04-15T00:29:28.231Z,58.0005
2023-04-15T00:30:29.887Z,57.9991
2023-04-15T00:31:31.577Z,57.9970
2023-04-15T00:32:33.156Z,58.0207
2023-04-15T00:33:34.650Z,58.0505
2023-04-15T00:34:36.163Z,58.0881
2023-04-15T00:35:37.696Z,58.1232
2023-04-15T00:36:39.186Z,58.1550
2023-04-15T00:37:40.690Z,58.1800
2023-04-15T00:38:42.186Z,58.2018
2023-04-15T00:39:43.674Z,58.3386
2023-04-15T00:40:45.153Z,58.5522
2023-04-15T00:41:46.684Z,58.8279
2023-04-15T00:42:48.229Z,59.1988
2023-04-15T00:43:49.702Z,59.5670
2023-04-15T00:44:51.234Z,59.8419
2023-04-15T00:45:52.789Z,60.1232
2023-04-15T00:46:54.291Z,60.3391
2023-04-15T00:47:55.800Z,60.4375
2023-04-15T00:48:57.462Z,60.4607
2023-04-15T00:49:59.242Z,60.4614
2023-04-15T00:51:00.771Z,60.4473
2023-04-15T00:52:02.295Z,60.4345
2023-04-15T00:53:03.843Z,60.4246
2023-04-15T00:54:05.364Z,60.4111
2023-04-15T00:55:06.828Z,60.3899
2023-04-15T00:56:08.320Z,60.3693
2023-04-15T00:57:09.813Z,60.3375
2023-04-15T00:58:11.396Z,60.3080
2023-04-15T00:59:12.895Z,60.2695
2023-04-15T01:00:14.426Z,60.2314
2023-04-15T01:01:15.966Z,60.1918
2023-04-15T01:02:17.716Z,60.1522
2023-04-15T01:03:19.760Z,60.1112
2023-04-15T01:04:21.627Z,60.0774
2023-04-15T01:05:23.184Z,60.0559
2023-04-15T01:06:24.696Z,60.0460
2023-04-15T01:07:26.184Z,60.0546
2023-04-15T01:08:27.645Z,60.0610
2023-04-15T01:09:29.153Z,60.0503
2023-04-15T01:10:30.669Z,60.0237
2023-04-15T01:11:32.183Z,59.9833
2023-04-15T01:12:33.692Z,59.9513
2023-04-15T01:13:35.230Z,59.9172
2023-04-15T01:14:36.739Z,59.8776
2023-04-15T01:15:38.215Z,59.8430
2023-04-15T01:16:39.763Z,59.8098
2023-04-15T01:17:41.256Z,59.7674
2023-04-15T01:18:42.760Z,59.7281
2023-04-15T01:19:44.208Z,59.6943
2023-04-15T01:20:45.711Z,59.6608
2023-04-15T01:21:47.238Z,59.6378
2023-04-15T01:22:48.736Z,59.6178
2023-04-15T01:23:50.225Z,59.5948
2023-04-15T01:24:51.742Z,59.5780
2023-04-15T01:25:53.213Z,59.5518
2023-04-15T01:26:54.709Z,59.5235
2023-04-15T01:27:56.153Z,59.4913
2023-04-15T01:28:57.848Z,59.4606
2023-04-15T01:29:57.623Z,59.4252
2023-04-15T01:30:59.096Z,59.3886
2023-04-15T01:32:00.562Z,59.3511
2023-04-15T01:33:02.162Z,59.3123
2023-04-15T01:34:03.662Z,59.2817
2023-04-15T01:35:05.167Z,59.2715
2023-04-15T01:36:06.668Z,59.2728
2023-04-15T01:37:08.157Z,59.2724
2023-04-15T01:38:09.643Z,59.2763
2023-04-15T01:39:11.144Z,59.2856
2023-04-15T01:40:12.625Z,59.3113
2023-04-15T01:41:14.107Z,59.3334
2023-04-15T01:42:15.672Z,59.3411
2023-04-15T01:43:17.215Z,59.3273
2023-04-15T01:44:18.697Z,59.3233
2023-04-15T01:45:20.214Z,59.3148
2023-04-15T01:46:21.700Z,59.3080
2023-04-15T01:47:23.373Z,59.3041
2023-04-15T01:48:24.862Z,59.3131
2023-04-15T01:49:26.427Z,59.3279
2023-04-15T01:50:27.906Z,59.3591
2023-04-15T01:51:29.432Z,59.3990
2023-04-15T01:52:29.605Z,59.4088
2023-04-15T01:53:31.124Z,59.3979
2023-04-15T01:54:32.591Z,59.3840
2023-04-15T01:55:34.099Z,59.3930
2023-04-15T01:56:35.576Z,59.4087
2023-04-15T01:57:37.051Z,59.4290
2023-04-15T01:58:38.556Z,59.4634
2023-04-15T01:59:40.055Z,59.4541
2023-04-15T02:00:41.605Z,59.4342
2023-04-15T02:01:43.060Z,59.5222
2023-04-15T02:02:44.695Z,59.6249
2023-04-15T02:03:46.631Z,59.7677
2023-04-15T02:04:48.365Z,59.8911
2023-04-15T02:05:49.881Z,59.9821
2023-04-15T02:06:51.372Z,60.0361
2023-04-15T02:07:52.868Z,60.0648
2023-04-15T02:08:54.334Z,60.0643
2023-04-15T02:09:55.819Z,60.0527
2023-04-15T02:10:57.281Z,60.0418
2023-04-15T02:11:58.781Z,60.0306
2023-04-15T02:13:00.323Z,60.0203
2023-04-15T02:14:01.823Z,60.0085
2023-04-15T02:15:03.345Z,60.0024
2023-04-15T02:16:04.802Z,59.9908
2023-04-15T02:17:06.314Z,59.9838
2023-04-15T02:18:07.853Z,59.9960
2023-04-15T02:19:09.574Z,60.0045
2023-04-15T02:20:11.049Z,59.9871
2023-04-15T02:21:12.556Z,60.0018
2023-04-15T02:22:14.070Z,60.0513
2023-04-15T02:23:15.500Z,60.0997
2023-04-15T02:24:17.011Z,60.1168
2023-04-15T02:25:18.490Z,60.1370
2023-04-15T02:26:19.986Z,60.1449
2023-04-15T02:27:21.524Z,60.1607
2023-04-15T02:28:23.286Z,60.1655
2023-04-15T02:29:24.730Z,60.1700
2023-04-15T02:30:26.180Z,60.1744
2023-04-15T02:31:27.758Z,60.1908
2023-04-15T02:32:29.234Z,60.2386
2023-04-15T02:33:30.726Z,60.3392
2023-04-15T02:34:32.228Z,60.4915
2023-04-15T02:35:33.670Z,60.6325
2023-04-15T02:36:35.229Z,60.7934
2023-04-15T02:37:36.641Z,60.9411
2023-04-15T02:38:38.172Z,61.0287
2023-04-15T02:39:39.690Z,61.0607
2023-04-15T02:40:41.184Z,61.0593
2023-04-15T02:41:42.646Z,61.0778
2023-04-15T02:42:44.157Z,61.1226
2023-04-15T02:43:45.840Z,61.2193
2023-04-15T02:44:47.421Z,61.3749
2023-04-15T02:45:48.969Z,61.5424
2023-04-15T02:46:50.440Z,61.6603
2023-04-15T02:47:50.661Z,61.8204
2023-04-15T02:48:52.147Z,62.0021
2023-04-15T02:49:53.701Z,62.1455
2023-04-15T02:50:55.206Z,62.2623
2023-04-15T02:51:56.802Z,62.3566
2023-04-15T02:52:58.294Z,62.4416
2023-04-15T02:53:59.804Z,62.5390
2023-04-15T02:55:01.298Z,62.6078
2023-04-15T02:56:02.820Z,62.6859
2023-04-15T02:57:04.307Z,62.7340
2023-04-15T02:58:05.868Z,62.7943
2023-04-15T02:59:07.441Z,62.8531
2023-04-15T03:00:08.958Z,62.8718
2023-04-15T03:01:10.507Z,62.9190
2023-04-15T03:02:12.114Z,62.9721
2023-04-15T03:03:13.843Z,62.9946
2023-04-15T03:04:15.687Z,63.0320
2023-04-15T03:05:17.402Z,63.0722
2023-04-15T03:06:18.940Z,63.1205
2023-04-15T03:07:20.396Z,63.1923
2023-04-15T03:08:21.875Z,63.2657
2023-04-15T03:09:23.375Z,63.3307
2023-04-15T03:10:24.854Z,63.4024
2023-04-15T03:11:26.332Z,63.4820
2023-04-15T03:12:27.907Z,63.5458
2023-04-15T03:13:28.077Z,63.5741
2023-04-15T03:14:29.618Z,63.6096
2023-04-15T03:15:31.112Z,63.6362
2023-04-15T03:16:32.680Z,63.6619
2023-04-15T03:17:34.216Z,63.6592
2023-04-15T03:18:35.673Z,63.6337
2023-04-15T03:19:37.184Z,63.6090
2023-04-15T03:20:38.922Z,63.5953
2023-04-15T03:21:40.430Z,63.5869
2023-04-15T03:22:41.898Z,63.6137
2023-04-15T03:23:43.347Z,63.6856
2023-04-15T03:24:44.858Z,63.7142
2023-04-15T03:25:46.399Z,63.7020
2023-04-15T03:26:47.898Z,63.6696
2023-04-15T03:27:49.454Z,63.6431
2023-04-15T03:28:50.981Z,63.6213
2023-04-15T03:29:52.518Z,63.5977
2023-04-15T03:30:54.150Z,63.5811
2023-04-15T03:31:54.339Z,63.5899
2023-04-15T03:32:55.931Z,63.6169
2023-04-15T03:33:57.532Z,63.6419
2023-04-15T03:34:59.156Z,63.6662
2023-04-15T03:36:00.729Z,63.6609
2023-04-15T03:37:02.284Z,63.6710
2023-04-15T03:38:03.827Z,63.6830
2023-04-15T03:39:05.406Z,63.7071
2023-04-15T03:40:05.609Z,63.7285
2023-04-15T03:41:07.219Z,63.7353
2023-04-15T03:42:08.723Z,63.7442
2023-04-15T03:43:10.272Z,63.7435
2023-04-15T03:44:11.811Z,63.7351
2023-04-15T03:45:13.363Z,63.7015
2023-04-15T03:46:14.983Z,63.6627
2023-04-15T03:47:16.485Z,63.5998
2023-04-15T03:48:18.418Z,63.5517
2023-04-15T03:49:20.204Z,63.5558
2023-04-15T03:50:21.758Z,63.5868
2023-04-15T03:51:23.358Z,63.6084
2023-04-15T03:52:24.899Z,63.6534
2023-04-15T03:53:26.458Z,63.7022
2023-04-15T03:54:28.021Z,63.7711
2023-04-15T03:55:29.593Z,63.8113
2023-04-15T03:56:31.273Z,63.8523
2023-04-15T03:57:31.549Z,63.8840
2023-04-15T03:58:33.090Z,63.9304
2023-04-15T03:59:34.580Z,63.9549
2023-04-15T04:00:36.229Z,63.9679
2023-04-15T04:01:37.815Z,64.0011
2023-04-15T04:02:39.629Z,64.0427
2023-04-15T04:03:39.495Z,64.0458
2023-04-15T04:04:39.579Z,64.0783
2023-04-15T04:05:41.462Z,64.0823
2023-04-15T04:06:43.231Z,64.1019
2023-04-15T04:07:44.783Z,64.1376
2023-04-15T04:08:46.351Z,64.1475
2023-04-15T04:09:47.940Z,64.1579
2023-04-15T04:10:49.468Z,64.1680
2023-04-15T04:11:51.053Z,64.1840
2023-04-15T04:12:52.572Z,64.2004
2023-04-15T04:13:54.190Z,64.2348
2023-04-15T04:14:55.760Z,64.2504
2023-04-15T04:15:57.358Z,64.2610
2023-04-15T04:16:57.817Z,64.3150
2023-04-15T04:17:59.391Z,64.3970
2023-04-15T04:19:01.138Z,64.4715
2023-04-15T04:20:01.807Z,64.5734
2023-04-15T04:21:03.398Z,64.6822
2023-04-15T04:22:04.985Z,64.7754
2023-04-15T04:23:06.494Z,64.8419
2023-04-15T04:24:08.087Z,64.8923
2023-04-15T04:25:09.627Z,64.9319
2023-04-15T04:26:11.245Z,64.9677
2023-04-15T04:27:12.838Z,65.0021
2023-04-15T04:28:14.412Z,65.0482
2023-04-15T04:29:15.976Z,65.0694
2023-04-15T04:30:17.547Z,65.1006
2023-04-15T04:31:19.066Z,65.1373
2023-04-15T04:32:20.669Z,65.1603
2023-04-15T04:33:22.249Z,65.1784
2023-04-15T04:34:23.872Z,65.2036
2023-04-15T04:35:25.459Z,65.2430
2023-04-15T04:36:26.974Z,65.3041
2023-04-15T04:37:28.568Z,65.3602
2023-04-15T04:38:30.072Z,65.3877
2023-04-15T04:39:31.642Z,65.4158
2023-04-15T04:40:33.216Z,65.4583
2023-04-15T04:41:34.973Z,65.5026
2023-04-15T04:42:38.681Z,65.5284
2023-04-15T04:43:37.116Z,65.5358
2023-04-15T04:44:38.701Z,65.5062
2023-04-15T04:45:40.326Z,65.4761
2023-04-15T04:46:41.907Z,65.4488
2023-04-15T04:47:43.518Z,65.4269
2023-04-15T04:48:47.061Z,65.4119
2023-04-15T04:49:46.583Z,65.3982
2023-04-15T04:50:48.111Z,65.3848
2023-04-15T04:51:49.648Z,65.3518
2023-04-15T04:52:51.256Z,65.3282
2023-04-15T04:53:52.794Z,65.3219
2023-04-15T04:54:54.381Z,65.3361
2023-04-15T04:55:55.954Z,65.3506
2023-04-15T04:56:57.547Z,65.3444
2023-04-15T04:57:59.143Z,65.3319
2023-04-15T04:59:00.806Z,65.3032
2023-04-15T05:00:02.845Z,65.2667
2023-04-15T05:01:04.587Z,65.2297
2023-04-15T05:02:06.234Z,65.1947
2023-04-15T05:03:08.194Z,65.1548
2023-04-15T05:04:08.258Z,65.1235
2023-04-15T05:05:10.095Z,65.0780
2023-04-15T05:06:11.626Z,65.0404
2023-04-15T05:07:13.189Z,65.0065
2023-04-15T05:08:14.747Z,64.9865
2023-04-15T05:09:16.320Z,64.9683
2023-04-15T05:10:17.908Z,64.9615
2023-04-15T05:11:19.567Z,64.9699
2023-04-15T05:12:21.105Z,64.9739
2023-04-15T05:13:22.671Z,64.9838
2023-04-15T05:14:24.238Z,64.9888
2023-04-15T05:15:25.836Z,64.9860
2023-04-15T05:16:27.431Z,64.9808
2023-04-15T05:17:29.094Z,64.9846
2023-04-15T05:18:30.656Z,64.9908
2023-04-15T05:19:32.311Z,64.9943
2023-04-15T05:20:33.851Z,64.9864
2023-04-15T05:21:37.035Z,64.9787
2023-04-15T05:22:36.595Z,64.9669
2023-04-15T05:23:38.201Z,64.9769
2023-04-15T05:24:39.804Z,65.0058
2023-04-15T05:25:41.355Z,65.0322
2023-04-15T05:26:43.003Z,65.0663
2023-04-15T05:27:44.528Z,65.0835
2023-04-15T05:28:46.080Z,65.0990
2023-04-15T05:29:47.680Z,65.1241
2023-04-15T05:30:49.271Z,65.1392
2023-04-15T05:31:50.782Z,65.1332
2023-04-15T05:32:52.408Z,65.1263
2023-04-15T05:33:54.037Z,65.1301
2023-04-15T05:34:55.666Z,65.1640
2023-04-15T05:35:57.276Z,65.1965
2023-04-15T05:36:58.792Z,65.2043
2023-04-15T05:38:00.345Z,65.2066
2023-04-15T05:39:02.033Z,65.1845
2023-04-15T05:40:02.031Z,65.1491
2023-04-15T05:41:03.577Z,65.1120
2023-04-15T05:42:05.194Z,65.0728
2023-04-15T05:43:06.765Z,65.0538
2023-04-15T05:44:08.376Z,65.0374
2023-04-15T05:45:09.931Z,65.0400
2023-04-15T05:46:11.661Z,65.0279
2023-04-15T05:47:13.248Z,65.0220
2023-04-15T05:48:14.795Z,65.0122
2023-04-15T05:49:16.362Z,64.9947
2023-04-15T05:50:17.908Z,64.9754
2023-04-15T05:51:19.459Z,64.9639
2023-04-15T05:52:21.282Z,64.9439
2023-04-15T05:53:22.798Z,64.9153
2023-04-15T05:54:23.083Z,64.8884
2023-04-15T05:55:24.701Z,64.8736
2023-04-15T05:56:26.433Z,64.8642
2023-04-15T05:57:27.998Z,64.8496
2023-04-15T05:58:29.582Z,64.8115
2023-04-15T05:59:31.213Z,64.7741
2023-04-15T06:00:32.701Z,64.7382
2023-04-15T06:01:34.256Z,64.7082
2023-04-15T06:02:35.978Z,64.6835
2023-04-15T06:03:37.923Z,64.6740
2023-04-15T06:04:37.934Z,64.6658
2023-04-15T06:05:39.656Z,64.6556
2023-04-15T06:06:41.206Z,64.6334
2023-04-15T06:07:42.772Z,64.5998
2023-04-15T06:08:44.328Z,64.5572
2023-04-15T06:09:45.860Z,64.5193
2023-04-15T06:10:47.340Z,64.4897
2023-04-15T06:11:48.906Z,64.4574
2023-04-15T06:12:50.454Z,64.4361
2023-04-15T06:13:52.089Z,64.4151
2023-04-15T06:14:52.408Z,64.3807
2023-04-15T06:15:53.997Z,64.3377
2023-04-15T06:16:55.605Z,64.2905
2023-04-15T06:17:57.202Z,64.2362
2023-04-15T06:18:58.887Z,64.1815
2023-04-15T06:20:00.455Z,64.1374
2023-04-15T06:21:01.960Z,64.0959
2023-04-15T06:22:03.472Z,64.0522
2023-04-15T06:23:05.008Z,64.0018
2023-04-15T06:24:06.588Z,63.9649
2023-04-15T06:25:08.087Z,63.9372
2023-04-15T06:26:09.615Z,63.9119
2023-04-15T06:27:11.133Z,63.8858
2023-04-15T06:28:12.690Z,63.8457
2023-04-15T06:29:14.219Z,63.7934
2023-04-15T06:30:15.751Z,63.7453
2023-04-15T06:31:17.276Z,63.7000
2023-04-15T06:32:18.751Z,63.6364
2023-04-15T06:33:20.286Z,63.5800
2023-04-15T06:34:21.825Z,63.5191
2023-04-15T06:35:23.360Z,63.4597
2023-04-15T06:36:24.908Z,63.4031
2023-04-15T06:37:26.409Z,63.3364
2023-04-15T06:38:27.937Z,63.2671
2023-04-15T06:39:29.529Z,63.2054
2023-04-15T06:40:31.041Z,63.1389
2023-04-15T06:41:32.564Z,63.0750
2023-04-15T06:42:34.102Z,63.0114
2023-04-15T06:43:35.579Z,62.9454
2023-04-15T06:44:37.126Z,62.8853
2023-04-15T06:45:38.634Z,62.8284
2023-04-15T06:46:40.135Z,62.7691
2023-04-15T06:47:41.683Z,62.7180
2023-04-15T06:48:43.144Z,62.6698
2023-04-15T06:49:44.641Z,62.6150
2023-04-15T06:50:46.163Z,62.5634
2023-04-15T06:51:47.653Z,62.5165
2023-04-15T06:52:49.209Z,62.4605
2023-04-15T06:53:50.733Z,62.4008
2023-04-15T06:54:52.230Z,62.3361
2023-04-15T06:55:53.741Z,62.2747
2023-04-15T06:56:55.251Z,62.1944
2023-04-15T06:57:56.715Z,62.1144
2023-04-15T06:58:58.183Z,62.0318
2023-04-15T06:59:59.717Z,61.9452
2023-04-15T07:01:01.241Z,61.8649
2023-04-15T07:02:02.994Z,61.7975
2023-04-15T07:03:04.574Z,61.7386
2023-04-15T07:04:06.161Z,61.6821
2023-04-15T07:05:07.781Z,61.6162
2023-04-15T07:06:09.292Z,61.5440
2023-04-15T07:07:10.799Z,61.4646
2023-04-15T07:08:12.300Z,61.3903
2023-04-15T07:09:13.819Z,61.3234
2023-04-15T07:10:15.337Z,61.2670
2023-04-15T07:11:16.830Z,61.1900
2023-04-15T07:12:18.446Z,61.1054
2023-04-15T07:13:19.947Z,61.0186
2023-04-15T07:14:21.487Z,60.9473
2023-04-15T07:15:23.061Z,60.8846
2023-04-15T07:16:24.598Z,60.8352
2023-04-15T07:17:25.099Z,60.7766
2023-04-15T07:18:26.628Z,60.7174
2023-04-15T07:19:28.093Z,60.6430
2023-04-15T07:20:29.614Z,60.5529
2023-04-15T07:21:31.116Z,60.4790
2023-04-15T07:22:32.623Z,60.4207
2023-04-15T07:23:34.099Z,60.3682
2023-04-15T07:24:35.816Z,60.3132
2023-04-15T07:25:37.292Z,60.2529
2023-04-15T07:26:38.783Z,60.1800
2023-04-15T07:27:40.257Z,60.1378
2023-04-15T07:28:41.737Z,60.0979
2023-04-15T07:29:43.260Z,60.0434
2023-04-15T07:30:44.783Z,60.0086
2023-04-15T07:31:46.432Z,59.9877
2023-04-15T07:32:47.902Z,59.9695
2023-04-15T07:33:49.454Z,59.9573
2023-04-15T07:34:50.955Z,59.9475
2023-04-15T07:35:52.492Z,59.9360
2023-04-15T07:36:53.996Z,59.9408
2023-04-15T07:37:55.454Z,59.9594
2023-04-15T07:38:56.932Z,59.9694
2023-04-15T07:39:58.438Z,59.9824
2023-04-15T07:40:59.936Z,59.9838
2023-04-15T07:42:01.468Z,59.9789
2023-04-15T07:43:02.964Z,59.9902
2023-04-15T07:44:04.453Z,60.0100
2023-04-15T07:45:05.957Z,60.0451
2023-04-15T07:46:07.496Z,60.0916
2023-04-15T07:47:09.051Z,60.1349
2023-04-15T07:48:10.526Z,60.1662
2023-04-15T07:49:12.033Z,60.1852
2023-04-15T07:50:13.532Z,60.1898
2023-04-15T07:51:15.077Z,60.1911
2023-04-15T07:52:16.686Z,60.1981
2023-04-15T07:53:18.153Z,60.2236
2023-04-15T07:54:19.648Z,60.2707
2023-04-15T07:55:21.160Z,60.2977
2023-04-15T07:56:22.694Z,60.3172
2023-04-15T07:57:24.185Z,60.3813
2023-04-15T07:58:25.613Z,60.4331
2023-04-15T07:59:27.117Z,60.4404
2023-04-15T08:00:28.613Z,60.4673
2023-04-15T08:01:30.169Z,60.4905
2023-04-15T08:02:31.799Z,60.4961
2023-04-15T08:03:33.643Z,60.4984
2023-04-15T08:04:35.562Z,60.4976
2023-04-15T08:05:37.501Z,60.4853
2023-04-15T08:06:39.048Z,60.4826
2023-04-15T08:07:40.524Z,60.4913
2023-04-15T08:08:42.035Z,60.4790
2023-04-15T08:09:43.507Z,60.4563
2023-04-15T08:10:45.026Z,60.4314
2023-04-15T08:11:46.554Z,60.4114
2023-04-15T08:12:48.056Z,60.3972
2023-04-15T08:13:49.582Z,60.3893
2023-04-15T08:14:51.088Z,60.3679
2023-04-15T08:15:52.682Z,60.3404
2023-04-15T08:16:54.249Z,60.3262
2023-04-15T08:17:55.994Z,60.3127
2023-04-15T08:18:57.504Z,60.2328
2023-04-15T08:19:59.186Z,60.1515
2023-04-15T08:21:00.683Z,60.1284
2023-04-15T08:22:02.184Z,60.0943
2023-04-15T08:23:03.732Z,60.0370
2023-04-15T08:24:05.255Z,59.9786
2023-04-15T08:25:06.842Z,59.8864
2023-04-15T08:26:08.481Z,59.7417
2023-04-15T08:27:09.944Z,59.6453
2023-04-15T08:28:11.484Z,59.5535
2023-04-15T08:29:13.035Z,59.4073
2023-04-15T08:30:14.529Z,59.2946
2023-04-15T08:31:16.054Z,59.2011
2023-04-15T08:32:17.745Z,59.0809
2023-04-15T08:33:19.271Z,58.8037
2023-04-15T08:34:20.802Z,58.5226
2023-04-15T08:35:22.321Z,58.3269
2023-04-15T08:36:23.794Z,58.1364
2023-04-15T08:37:25.402Z,58.0530
2023-04-15T08:38:26.906Z,58.0287
2023-04-15T08:39:28.444Z,58.0177
2023-04-15T08:40:30.030Z,57.9751
2023-04-15T08:41:31.544Z,57.8766
2023-04-15T08:42:33.103Z,57.5612
2023-04-15T08:43:34.569Z,57.3830
2023-04-15T08:44:36.142Z,57.2279
2023-04-15T08:45:37.601Z,56.9781
2023-04-15T08:46:39.256Z,56.9418
2023-04-15T08:47:41.085Z,56.9808
2023-04-15T08:48:42.640Z,56.9946
2023-04-15T08:49:44.241Z,57.0343
2023-04-15T08:50:45.771Z,57.0800
2023-04-15T08:51:47.230Z,57.1122
2023-04-15T08:52:48.783Z,57.1506
2023-04-15T08:53:50.275Z,57.1769
2023-04-15T08:54:51.839Z,57.1895
2023-04-15T08:55:53.390Z,57.1994
2023-04-15T08:56:54.932Z,57.2053
2023-04-15T08:57:56.598Z,57.2045
2023-04-15T08:58:58.082Z,57.1992
2023-04-15T08:59:59.607Z,57.1789
2023-04-15T09:01:01.127Z,57.1529
2023-04-15T09:02:02.734Z,57.1095
2023-04-15T09:03:04.350Z,57.0544
2023-04-15T09:04:06.016Z,57.0113
2023-04-15T09:05:07.533Z,56.9692
2023-04-15T09:06:09.068Z,56.9337
2023-04-15T09:07:10.616Z,56.9107
2023-04-15T09:08:12.181Z,56.9016
2023-04-15T09:09:13.754Z,56.9083
2023-04-15T09:10:15.271Z,56.9710
2023-04-15T09:11:17.806Z,57.0159
2023-04-15T09:12:17.267Z,57.0960
2023-04-15T09:13:18.865Z,57.1730
2023-04-15T09:14:20.661Z,57.2525
2023-04-15T09:15:22.168Z,57.3569
2023-04-15T09:16:23.737Z,57.4769
2023-04-15T09:17:25.600Z,57.5526
2023-04-15T09:18:27.208Z,57.6372
2023-04-15T09:19:28.745Z,57.7326
2023-04-15T09:20:30.289Z,57.8320
2023-04-15T09:21:31.777Z,57.9480
2023-04-15T09:22:33.362Z,58.0214
2023-04-15T09:23:34.863Z,58.0799
2023-04-15T09:24:36.414Z,58.1730
2023-04-15T09:25:38.017Z,58.2721
2023-04-15T09:26:39.517Z,58.3141
2023-04-15T09:27:41.001Z,58.3622
2023-04-15T09:28:42.571Z,58.4309
2023-04-15T09:29:44.169Z,58.4542
2023-04-15T09:30:45.668Z,58.4723
2023-04-15T09:31:47.293Z,58.4990
2023-04-15T09:32:48.913Z,58.5078
2023-04-15T09:33:50.444Z,58.5158
2023-04-15T09:34:52.005Z,58.5028
2023-04-15T09:35:53.487Z,58.5014
2023-04-15T09:36:55.076Z,58.4884
2023-04-15T09:37:56.615Z,58.4685
2023-04-15T09:38:58.192Z,58.4534
2023-04-15T09:39:59.780Z,58.4362
2023-04-15T09:41:01.328Z,58.4195
2023-04-15T09:42:02.840Z,58.3849
2023-04-15T09:43:04.470Z,58.3503
2023-04-15T09:44:06.030Z,58.3142
2023-04-15T09:45:07.552Z,58.2781
2023-04-15T09:46:09.423Z,58.2314
2023-04-15T09:47:11.088Z,58.2065
2023-04-15T09:48:12.589Z,58.1823
2023-04-15T09:49:14.137Z,58.1462
2023-04-15T09:50:15.810Z,58.1099
2023-04-15T09:51:17.331Z,58.0425
2023-04-15T09:52:19.146Z,57.9834
2023-04-15T09:53:20.654Z,57.9441
2023-04-15T09:54:22.162Z,57.9251
2023-04-15T09:55:23.720Z,57.9031
2023-04-15T09:56:25.277Z,57.7694
2023-04-15T09:57:26.786Z,57.5628
2023-04-15T09:58:28.338Z,57.5030
2023-04-15T09:59:29.905Z,57.4540
2023-04-15T10:00:31.482Z,57.4244
2023-04-15T10:01:33.112Z,57.4129
2023-04-15T10:02:35.016Z,57.3252
2023-04-15T10:03:34.968Z,57.2104
2023-04-15T10:04:34.691Z,57.1610
2023-04-15T10:05:36.328Z,57.1388
2023-04-15T10:06:37.875Z,57.1341
2023-04-15T10:07:39.658Z,57.1261
2023-04-15T10:08:41.353Z,57.1317
2023-04-15T10:09:42.934Z,57.1467
2023-04-15T10:10:44.452Z,57.1785
2023-04-15T10:11:45.980Z,57.2082
2023-04-15T10:12:47.627Z,57.2167
2023-04-15T10:13:49.202Z,57.2144
2023-04-15T10:14:50.804Z,57.2432
2023-04-15T10:15:52.386Z,57.2800
2023-04-15T10:16:53.937Z,57.2973
2023-04-15T10:17:55.613Z,57.3196
2023-04-15T10:18:57.311Z,57.3617
2023-04-15T10:19:59.044Z,57.4399
2023-04-15T10:21:00.595Z,57.5319
2023-04-15T10:22:02.236Z,57.6324
2023-04-15T10:23:03.719Z,57.7148
2023-04-15T10:24:05.254Z,57.7830
2023-04-15T10:25:06.870Z,57.8546
2023-04-15T10:26:08.686Z,57.9439
2023-04-15T10:27:10.484Z,58.0259
2023-04-15T10:28:11.997Z,58.0670
2023-04-15T10:29:13.632Z,58.0865
2023-04-15T10:30:15.235Z,58.1231
2023-04-15T10:31:16.885Z,58.1714
2023-04-15T10:32:18.634Z,58.2249
2023-04-15T10:33:20.348Z,58.2587
2023-04-15T10:34:21.947Z,58.2024
2023-04-15T10:35:23.527Z,58.1244
2023-04-15T10:36:25.040Z,58.0962
2023-04-15T10:37:26.769Z,58.0992
2023-04-15T10:38:28.414Z,58.1040
2023-04-15T10:39:29.999Z,58.1251
2023-04-15T10:40:31.621Z,58.1383
2023-04-15T10:41:33.165Z,58.1244
2023-04-15T10:42:34.727Z,58.0808
2023-04-15T10:43:36.210Z,58.0559
2023-04-15T10:44:37.827Z,58.0238
2023-04-15T10:45:39.330Z,57.9901
2023-04-15T10:46:40.993Z,57.9784
2023-04-15T10:47:42.559Z,57.9523
2023-04-15T10:48:44.110Z,57.9556
2023-04-15T10:49:45.670Z,57.9487
2023-04-15T10:50:47.222Z,57.8937
2023-04-15T10:51:48.718Z,57.8480
2023-04-15T10:52:50.305Z,57.8234
2023-04-15T10:53:51.817Z,57.8440
2023-04-15T10:54:53.380Z,57.8764
2023-04-15T10:55:54.946Z,57.9357
2023-04-15T10:56:56.439Z,58.0122
2023-04-15T10:57:57.963Z,58.0420
2023-04-15T10:58:59.484Z,58.0492
2023-04-15T11:00:00.990Z,58.0349
2023-04-15T11:01:02.507Z,58.0086
2023-04-15T11:02:04.131Z,58.0240
2023-04-15T11:03:05.942Z,58.1121
2023-04-15T11:04:08.219Z,58.2010
2023-04-15T11:05:07.899Z,58.3085
2023-04-15T11:06:09.403Z,58.3872
2023-04-15T11:07:10.895Z,58.4372
2023-04-15T11:08:12.437Z,58.2542
2023-04-15T11:09:14.112Z,58.0319
2023-04-15T11:10:15.790Z,57.9378
2023-04-15T11:11:17.303Z,57.8898
2023-04-15T11:12:18.783Z,57.8463
2023-04-15T11:13:20.287Z,57.6894
2023-04-15T11:14:21.793Z,57.5618
2023-04-15T11:15:23.310Z,57.4378
2023-04-15T11:16:24.841Z,57.3054
2023-04-15T11:17:26.371Z,57.2092
2023-04-15T11:18:27.856Z,57.1519
2023-04-15T11:19:29.382Z,57.1069
2023-04-15T11:20:30.969Z,57.0816
2023-04-15T11:21:32.510Z,56.9926
2023-04-15T11:22:34.020Z,56.9333
2023-04-15T11:23:35.568Z,56.9006
2023-04-15T11:24:37.078Z,56.8925
2023-04-15T11:25:38.592Z,56.8961
2023-04-15T11:26:40.486Z,56.9050
2023-04-15T11:27:42.042Z,56.9901
2023-04-15T11:28:43.708Z,57.0423
2023-04-15T11:29:45.442Z,57.0617
2023-04-15T11:30:47.200Z,57.0996
2023-04-15T11:31:48.783Z,57.1640
2023-04-15T11:32:50.419Z,57.2500
2023-04-15T11:33:52.007Z,57.3676
2023-04-15T11:34:53.547Z,57.5002
2023-04-15T11:35:55.152Z,57.6287
2023-04-15T11:36:55.403Z,57.7197
2023-04-15T11:37:57.011Z,57.8040
2023-04-15T11:38:58.615Z,57.8232
2023-04-15T11:40:00.201Z,57.8807
2023-04-15T11:41:01.744Z,57.9898
2023-04-15T11:42:03.386Z,58.1582
2023-04-15T11:43:04.939Z,58.2106
2023-04-15T11:44:06.514Z,58.2634
2023-04-15T11:45:08.154Z,58.3554
2023-04-15T11:46:09.806Z,58.4465
2023-04-15T11:47:11.379Z,58.5433
2023-04-15T11:48:12.963Z,58.6452
2023-04-15T11:49:14.608Z,58.7654
2023-04-15T11:50:16.158Z,58.8715
2023-04-15T11:51:17.689Z,58.9480
2023-04-15T11:52:19.321Z,59.0310
2023-04-15T11:53:20.846Z,59.1489
2023-04-15T11:54:22.444Z,59.2356
2023-04-15T11:55:23.988Z,59.3572
2023-04-15T11:56:25.538Z,59.5325
2023-04-15T11:57:27.071Z,59.6561
2023-04-15T11:58:28.652Z,59.7926
2023-04-15T11:59:38.927Z,59.9043
2023-04-15T12:00:31.810Z,59.9763
2023-04-15T12:01:33.379Z,59.9638
2023-04-15T12:02:35.103Z,59.9415
2023-04-15T12:03:34.838Z,59.9320
2023-04-15T12:04:37.070Z,59.8913
2023-04-15T12:05:36.968Z,59.7912
2023-04-15T12:06:38.519Z,59.6276
2023-04-15T12:07:39.993Z,59.4287
2023-04-15T12:08:41.531Z,59.3636
2023-04-15T12:09:43.016Z,59.2524
2023-04-15T12:10:44.477Z,59.0380
2023-04-15T12:11:45.937Z,58.8328
2023-04-15T12:12:47.486Z,58.6052
2023-04-15T12:13:48.999Z,58.3057
2023-04-15T12:14:50.470Z,58.0176
2023-04-15T12:15:52.024Z,57.7114
2023-04-15T12:16:53.551Z,57.4003
2023-04-15T12:17:55.354Z,57.1847
2023-04-15T12:18:56.808Z,57.0064
2023-04-15T12:19:58.448Z,56.8288
2023-04-15T12:20:59.928Z,56.5016
2023-04-15T12:22:01.470Z,56.0882
2023-04-15T12:23:02.907Z,55.8782
2023-04-15T12:24:04.706Z,55.8093